sensor_id;sensor_type;location;lat;lon;timestamp;pressure;altitude;pressure_sealevel;temperature;humidity
66668;BME280;57205;51.438;-2.006;2023-02-22T00:01:11;100599.50;;;6.99;100.00
66668;BME280;57205;51.438;-2.006;2023-02-22T00:03:47;100602.72;;;7.01;100.00
66668;BME280;57205;51.438;-2.006;2023-02-22T00:06:14;100599.81;;;7.03;100.00
66668;BME280;57205;51.438;-2.006;2023-02-22T00:08:40;100601.69;;;7.02;100.00
66668;BME280;57205;51.438;-2.006;2023-02-22T00:11:06;100587.91;;;7.05;100.00
66668;BME280;57205;51.438;-2.006;2023-02-22T00:13:35;100585.50;;;7.04;100.00
66668;BME280;57205;51.438;-2.006;2023-02-22T00:16:00;100580.63;;;7.01;100.00
66668;BME280;57205;51.438;-2.006;2023-02-22T00:18:26;100584.38;;;7.00;100.00
66668;BME280;57205;51.438;-2.006;2023-02-22T00:20:55;100578.22;;;6.99;100.00
66668;BME280;57205;51.438;-2.006;2023-02-22T00:23:23;100581.69;;;7.00;100.00
66668;BME280;57205;51.438;-2.006;2023-02-22T00:25:49;100584.38;;;7.00;100.00
66668;BME280;57205;51.438;-2.006;2023-02-22T00:28:15;100580.88;;;6.99;100.00
66668;BME280;57205;51.438;-2.006;2023-02-22T00:30:41;100576.38;;;7.00;100.00
66668;BME280;57205;51.438;-2.006;2023-02-22T00:33:12;100577.75;;;7.02;100.00
66668;BME280;57205;51.438;-2.006;2023-02-22T00:35:38;100575.31;;;7.01;100.00
66668;BME280;57205;51.438;-2.006;2023-02-22T00:38:04;100579.34;;;7.03;100.00
66668;BME280;57205;51.438;-2.006;2023-02-22T00:40:30;100574.28;;;7.02;100.00
66668;BME280;57205;51.438;-2.006;2023-02-22T00:42:56;100573.22;;;7.03;100.00
66668;BME280;57205;51.438;-2.006;2023-02-22T00:45:23;100567.91;;;7.03;100.00
66668;BME280;57205;51.438;-2.006;2023-02-22T00:47:48;100568.47;;;7.05;100.00
66668;BME280;57205;51.438;-2.006;2023-02-22T00:50:17;100559.13;;;7.02;100.00
66668;BME280;57205;51.438;-2.006;2023-02-22T00:52:43;100558.09;;;7.03;100.00
66668;BME280;57205;51.438;-2.006;2023-02-22T00:55:09;100554.03;;;7.01;100.00
66668;BME280;57205;51.438;-2.006;2023-02-22T00:57:35;100551.63;;;6.99;100.00
66668;BME280;57205;51.438;-2.006;2023-02-22T01:00:02;100551.31;;;6.96;100.00
66668;BME280;57205;51.438;-2.006;2023-02-22T01:02:36;100550.75;;;6.93;100.00
66668;BME280;57205;51.438;-2.006;2023-02-22T01:05:01;100548.06;;;6.93;100.00
66668;BME280;57205;51.438;-2.006;2023-02-22T01:07:27;100551.56;;;6.94;100.00
66668;BME280;57205;51.438;-2.006;2023-02-22T01:09:52;100545.41;;;6.93;100.00
66668;BME280;57205;51.438;-2.006;2023-02-22T01:12:17;100540.91;;;6.94;100.00
66668;BME280;57205;51.438;-2.006;2023-02-22T01:14:44;100538.50;;;6.93;100.00
66668;BME280;57205;51.438;-2.006;2023-02-22T01:17:10;100534.22;;;6.91;100.00
66668;BME280;57205;51.438;-2.006;2023-02-22T01:19:35;100538.50;;;6.93;100.00
66668;BME280;57205;51.438;-2.006;2023-02-22T01:22:00;100543.81;;;6.93;100.00
66668;BME280;57205;51.438;-2.006;2023-02-22T01:24:25;100539.06;;;6.95;100.00
66668;BME280;57205;51.438;-2.006;2023-02-22T01:26:51;100534.78;;;6.93;100.00
66668;BME280;57205;51.438;-2.006;2023-02-22T01:29:17;100532.44;;;6.97;100.00
66668;BME280;57205;51.438;-2.006;2023-02-22T01:31:42;100533.25;;;6.98;100.00
66668;BME280;57205;51.438;-2.006;2023-02-22T01:34:15;100530.59;;;6.98;100.00
66668;BME280;57205;51.438;-2.006;2023-02-22T01:36:41;100531.66;;;6.97;100.00
66668;BME280;57205;51.438;-2.006;2023-02-22T01:39:06;100528.44;;;6.95;100.00
66668;BME280;57205;51.438;-2.006;2023-02-22T01:41:34;100528.44;;;6.95;100.00
66668;BME280;57205;51.438;-2.006;2023-02-22T01:44:15;100516.16;;;6.93;100.00
66668;BME280;57205;51.438;-2.006;2023-02-22T01:46:41;100518.25;;;6.91;100.00
66668;BME280;57205;51.438;-2.006;2023-02-22T01:49:06;100515.34;;;6.93;100.00
66668;BME280;57205;51.438;-2.006;2023-02-22T01:51:37;100511.34;;;6.90;100.00
66668;BME280;57205;51.438;-2.006;2023-02-22T01:56:30;100510.59;;;6.95;100.00
66668;BME280;57205;51.438;-2.006;2023-02-22T01:58:58;100505.59;;;6.99;100.00
66668;BME280;57205;51.438;-2.006;2023-02-22T02:01:25;100505.06;;;6.97;100.00
66668;BME280;57205;51.438;-2.006;2023-02-22T02:03:51;100510.38;;;6.97;100.00
66668;BME280;57205;51.438;-2.006;2023-02-22T02:06:19;100507.16;;;6.95;100.00
66668;BME280;57205;51.438;-2.006;2023-02-22T02:09:02;100497.63;;;6.99;100.00
66668;BME280;57205;51.438;-2.006;2023-02-22T02:11:28;100488.53;;;6.95;100.00
66668;BME280;57205;51.438;-2.006;2023-02-22T02:13:55;100497.28;;;6.95;100.00
66668;BME280;57205;51.438;-2.006;2023-02-22T02:16:22;100501.34;;;6.98;100.00
66668;BME280;57205;51.438;-2.006;2023-02-22T02:18:48;100492.53;;;6.97;100.00
66668;BME280;57205;51.438;-2.006;2023-02-22T02:21:27;100491.50;;;6.98;100.00
66668;BME280;57205;51.438;-2.006;2023-02-22T02:37:03;100487.72;;;6.94;100.00
66668;BME280;57205;51.438;-2.006;2023-02-22T02:39:34;100481.91;;;6.97;100.00
66668;BME280;57205;51.438;-2.006;2023-02-22T02:42:02;100489.88;;;6.97;100.00
66668;BME280;57205;51.438;-2.006;2023-02-22T02:44:43;100482.16;;;6.96;100.00
66668;BME280;57205;51.438;-2.006;2023-02-22T02:47:17;100486.44;;;6.97;100.00
66668;BME280;57205;51.438;-2.006;2023-02-22T02:49:55;100480.63;;;7.00;100.00
66668;BME280;57205;51.438;-2.006;2023-02-22T02:52:24;100480.88;;;6.98;100.00
66668;BME280;57205;51.438;-2.006;2023-02-22T02:54:50;100477.41;;;6.98;100.00
66668;BME280;57205;51.438;-2.006;2023-02-22T02:57:16;100478.22;;;6.98;100.00
66668;BME280;57205;51.438;-2.006;2023-02-22T02:59:41;100474.75;;;6.98;100.00
66668;BME280;57205;51.438;-2.006;2023-02-22T03:12:45;100444.59;;;6.92;100.00
66668;BME280;57205;51.438;-2.006;2023-02-22T03:17:55;100440.56;;;6.89;100.00
66668;BME280;57205;51.438;-2.006;2023-02-22T03:20:40;100444.28;;;6.88;100.00
66668;BME280;57205;51.438;-2.006;2023-02-22T03:23:13;100447.97;;;6.87;100.00
66668;BME280;57205;51.438;-2.006;2023-02-22T03:25:52;100447.97;;;6.87;100.00
66668;BME280;57205;51.438;-2.006;2023-02-22T03:28:18;100441.13;;;6.91;100.00
66668;BME280;57205;51.438;-2.006;2023-02-22T03:30:51;100447.00;;;6.93;100.00
66668;BME280;57205;51.438;-2.006;2023-02-22T03:33:19;100445.41;;;6.93;100.00
66668;BME280;57205;51.438;-2.006;2023-02-22T03:35:53;100435.03;;;6.91;100.00
66668;BME280;57205;51.438;-2.006;2023-02-22T03:38:21;100438.16;;;6.88;100.00
66668;BME280;57205;51.438;-2.006;2023-02-22T03:40:48;100432.84;;;6.88;100.00
66668;BME280;57205;51.438;-2.006;2023-02-22T03:43:17;100432.03;;;6.87;100.00
66668;BME280;57205;51.438;-2.006;2023-02-22T03:45:45;100433.09;;;6.86;100.00
66668;BME280;57205;51.438;-2.006;2023-02-22T03:48:18;100429.94;;;6.89;100.00
66668;BME280;57205;51.438;-2.006;2023-02-22T03:50:44;100419.28;;;6.89;100.00
66668;BME280;57205;51.438;-2.006;2023-02-22T03:53:10;100419.28;;;6.89;100.00
66668;BME280;57205;51.438;-2.006;2023-02-22T03:55:35;100427.06;;;6.91;100.00
66668;BME280;57205;51.438;-2.006;2023-02-22T03:58:02;100423.00;;;6.88;100.00
66668;BME280;57205;51.438;-2.006;2023-02-22T04:00:29;100415.84;;;6.89;100.00
66668;BME280;57205;51.438;-2.006;2023-02-22T04:02:55;100418.72;;;6.87;100.00
66668;BME280;57205;51.438;-2.006;2023-02-22T04:05:21;100413.41;;;6.87;100.00
66668;BME280;57205;51.438;-2.006;2023-02-22T04:07:48;100413.41;;;6.87;100.00
66668;BME280;57205;51.438;-2.006;2023-02-22T04:10:14;100420.91;;;6.90;100.00
66668;BME280;57205;51.438;-2.006;2023-02-22T04:12:40;100413.41;;;6.87;100.00
66668;BME280;57205;51.438;-2.006;2023-02-22T04:15:06;100413.66;;;6.86;100.00
66668;BME280;57205;51.438;-2.006;2023-02-22T04:17:31;100413.34;;;6.82;100.00
66668;BME280;57205;51.438;-2.006;2023-02-22T04:19:57;100406.44;;;6.81;100.00
66668;BME280;57205;51.438;-2.006;2023-02-22T04:22:22;100410.44;;;6.84;100.00
66668;BME280;57205;51.438;-2.006;2023-02-22T04:24:47;100403.84;;;6.86;100.00
66668;BME280;57205;51.438;-2.006;2023-02-22T04:27:13;100410.44;;;6.84;100.00
66668;BME280;57205;51.438;-2.006;2023-02-22T04:29:38;100407.00;;;6.83;100.00
66668;BME280;57205;51.438;-2.006;2023-02-22T04:32:03;100399.00;;;6.83;100.00
66668;BME280;57205;51.438;-2.006;2023-02-22T04:34:29;100396.56;;;6.82;100.00
66668;BME280;57205;51.438;-2.006;2023-02-22T04:36:54;100393.38;;;6.80;100.00
66668;BME280;57205;51.438;-2.006;2023-02-22T04:39:19;100388.06;;;6.80;100.00
66668;BME280;57205;51.438;-2.006;2023-02-22T04:41:44;100381.38;;;6.77;100.00
66668;BME280;57205;51.438;-2.006;2023-02-22T04:44:11;100380.81;;;6.75;100.00
66668;BME280;57205;51.438;-2.006;2023-02-22T04:46:36;100378.41;;;6.74;100.00
66668;BME280;57205;51.438;-2.006;2023-02-22T04:49:02;100375.75;;;6.74;100.00
66668;BME280;57205;51.438;-2.006;2023-02-22T04:51:27;100379.69;;;6.71;100.00
66668;BME280;57205;51.438;-2.006;2023-02-22T04:53:53;100381.22;;;6.67;100.00
66668;BME280;57205;51.438;-2.006;2023-02-22T04:56:18;100379.13;;;6.69;100.00
66668;BME280;57205;51.438;-2.006;2023-02-22T04:58:43;100381.78;;;6.69;100.00
66668;BME280;57205;51.438;-2.006;2023-02-22T05:01:09;100386.06;;;6.70;100.00
66668;BME280;57205;51.438;-2.006;2023-02-22T05:03:36;100390.81;;;6.68;100.00
66668;BME280;57205;51.438;-2.006;2023-02-22T05:06:01;100387.09;;;6.69;100.00
66668;BME280;57205;51.438;-2.006;2023-02-22T05:08:26;100386.53;;;6.67;100.00
66668;BME280;57205;51.438;-2.006;2023-02-22T05:10:52;100391.59;;;6.69;100.00
66668;BME280;57205;51.438;-2.006;2023-02-22T05:13:17;100396.13;;;6.68;100.00
66668;BME280;57205;51.438;-2.006;2023-02-22T05:15:43;100397.16;;;6.67;100.00
66668;BME280;57205;51.438;-2.006;2023-02-22T05:18:08;100393.94;;;6.65;100.00
66668;BME280;57205;51.438;-2.006;2023-02-22T05:20:33;100401.91;;;6.65;100.00
66668;BME280;57205;51.438;-2.006;2023-02-22T05:22:59;100395.56;;;6.66;100.00
66668;BME280;57205;51.438;-2.006;2023-02-22T05:25:25;100394.19;;;6.64;100.00
66668;BME280;57205;51.438;-2.006;2023-02-22T05:30:16;100396.28;;;6.62;100.00
66668;BME280;57205;51.438;-2.006;2023-02-22T05:32:42;100391.47;;;6.59;100.00
66668;BME280;57205;51.438;-2.006;2023-02-22T05:35:07;100391.22;;;6.60;100.00
66668;BME280;57205;51.438;-2.006;2023-02-22T05:37:32;100395.97;;;6.58;100.00
66668;BME280;57205;51.438;-2.006;2023-02-22T05:39:58;100387.44;;;6.56;100.00
66668;BME280;57205;51.438;-2.006;2023-02-22T05:42:23;100381.09;;;6.57;100.00
66668;BME280;57205;51.438;-2.006;2023-02-22T05:44:48;100371.97;;;6.53;100.00
66668;BME280;57205;51.438;-2.006;2023-02-22T05:47:14;100380.53;;;6.55;100.00
66668;BME280;57205;51.438;-2.006;2023-02-22T05:49:39;100378.13;;;6.54;100.00
66668;BME280;57205;51.438;-2.006;2023-02-22T05:52:04;100372.53;;;6.55;100.00
66668;BME280;57205;51.438;-2.006;2023-02-22T05:54:29;100376.72;;;6.51;100.00
66668;BME280;57205;51.438;-2.006;2023-02-22T05:56:55;100378.59;;;6.51;100.00
66668;BME280;57205;51.438;-2.006;2023-02-22T05:59:20;100382.63;;;6.53;100.00
66668;BME280;57205;51.438;-2.006;2023-02-22T06:01:45;100374.06;;;6.51;100.00
66668;BME280;57205;51.438;-2.006;2023-02-22T06:04:10;100376.72;;;6.51;100.00
66668;BME280;57205;51.438;-2.006;2023-02-22T06:06:36;100378.81;;;6.49;100.00
66668;BME280;57205;51.438;-2.006;2023-02-22T06:09:01;100380.44;;;6.50;100.00
66668;BME280;57205;51.438;-2.006;2023-02-22T06:11:26;100376.47;;;6.53;100.00
66668;BME280;57205;51.438;-2.006;2023-02-22T06:13:51;100372.78;;;6.54;100.00
66668;BME280;57205;51.438;-2.006;2023-02-22T06:16:17;100372.53;;;6.55;100.00
66668;BME280;57205;51.438;-2.006;2023-02-22T06:18:43;100372.06;;;6.58;100.00
66668;BME280;57205;51.438;-2.006;2023-02-22T06:21:08;100366.97;;;6.57;100.00
66668;BME280;57205;51.438;-2.006;2023-02-22T06:23:33;100365.59;;;6.54;100.00
66668;BME280;57205;51.438;-2.006;2023-02-22T06:25:58;100376.81;;;6.56;100.00
66668;BME280;57205;51.438;-2.006;2023-02-22T06:28:24;100371.50;;;6.56;100.00
66668;BME280;57205;51.438;-2.006;2023-02-22T06:30:50;100366.72;;;6.58;100.00
66668;BME280;57205;51.438;-2.006;2023-02-22T06:33:15;100365.69;;;6.59;100.00
66668;BME280;57205;51.438;-2.006;2023-02-22T06:35:40;100367.28;;;6.60;100.00
66668;BME280;57205;51.438;-2.006;2023-02-22T06:38:06;100370.53;;;6.62;100.00
66668;BME280;57205;51.438;-2.006;2023-02-22T06:40:31;100360.94;;;6.61;100.00
66668;BME280;57205;51.438;-2.006;2023-02-22T06:42:57;100363.03;;;6.59;100.00
66668;BME280;57205;51.438;-2.006;2023-02-22T06:45:22;100364.88;;;6.59;100.00
66668;BME280;57205;51.438;-2.006;2023-02-22T06:47:47;100364.38;;;6.62;100.00
66668;BME280;57205;51.438;-2.006;2023-02-22T06:50:26;100367.84;;;6.62;100.00
66668;BME280;57205;51.438;-2.006;2023-02-22T06:52:53;100362.53;;;6.62;100.00
66668;BME280;57205;51.438;-2.006;2023-02-22T06:55:19;100374.00;;;6.63;100.00
66668;BME280;57205;51.438;-2.006;2023-02-22T06:57:45;100376.97;;;6.66;100.00
66668;BME280;57205;51.438;-2.006;2023-02-22T07:00:11;100379.88;;;6.65;100.00
66668;BME280;57205;51.438;-2.006;2023-02-22T07:02:36;100380.34;;;6.62;100.00
66668;BME280;57205;51.438;-2.006;2023-02-22T07:05:02;100380.34;;;6.62;100.00
66668;BME280;57205;51.438;-2.006;2023-02-22T07:07:27;100385.41;;;6.63;100.00
66668;BME280;57205;51.438;-2.006;2023-02-22T07:09:54;100382.75;;;6.63;100.00
66668;BME280;57205;51.438;-2.006;2023-02-22T07:12:19;100381.47;;;6.66;100.00
66668;BME280;57205;51.438;-2.006;2023-02-22T07:14:44;100380.66;;;6.65;100.00
66668;BME280;57205;51.438;-2.006;2023-02-22T07:17:09;100378.81;;;6.66;100.00
66668;BME280;57205;51.438;-2.006;2023-02-22T07:19:35;100381.22;;;6.67;100.00
66668;BME280;57205;51.438;-2.006;2023-02-22T07:22:00;100382.59;;;6.70;100.00
66668;BME280;57205;51.438;-2.006;2023-02-22T07:24:26;100388.22;;;6.73;100.00
66668;BME280;57205;51.438;-2.006;2023-02-22T07:26:52;100382.41;;;6.76;100.00
66668;BME280;57205;51.438;-2.006;2023-02-22T07:29:18;100394.41;;;6.79;100.00
66668;BME280;57205;51.438;-2.006;2023-02-22T07:31:43;100383.28;;;6.82;100.00
66668;BME280;57205;51.438;-2.006;2023-02-22T07:34:09;100391.03;;;6.83;100.00
66668;BME280;57205;51.438;-2.006;2023-02-22T07:36:34;100386.50;;;6.84;100.00
66668;BME280;57205;51.438;-2.006;2023-02-22T07:38:59;100389.72;;;6.86;100.00
66668;BME280;57205;51.438;-2.006;2023-02-22T07:41:24;100384.16;;;6.87;100.00
66668;BME280;57205;51.438;-2.006;2023-02-22T07:43:50;100384.16;;;6.87;100.00
66668;BME280;57205;51.438;-2.006;2023-02-22T07:46:15;100385.22;;;6.86;100.00
66668;BME280;57205;51.438;-2.006;2023-02-22T07:48:40;100388.44;;;6.88;100.00
66668;BME280;57205;51.438;-2.006;2023-02-22T07:51:06;100396.41;;;6.88;100.00
66668;BME280;57205;51.438;-2.006;2023-02-22T07:53:31;100398.56;;;6.91;100.00
66668;BME280;57205;51.438;-2.006;2023-02-22T07:56:01;100405.53;;;6.93;100.00
66668;BME280;57205;51.438;-2.006;2023-02-22T07:58:27;100409.53;;;6.95;100.00
66668;BME280;57205;51.438;-2.006;2023-02-22T08:00:52;100411.97;;;6.97;100.00
66668;BME280;57205;51.438;-2.006;2023-02-22T08:03:19;100419.44;;;7.00;100.00
66668;BME280;57205;51.438;-2.006;2023-02-22T08:05:45;100418.16;;;7.02;100.00
66668;BME280;57205;51.438;-2.006;2023-02-22T08:08:11;100422.47;;;7.08;100.00
66668;BME280;57205;51.438;-2.006;2023-02-22T08:10:36;100422.47;;;7.08;100.00
66668;BME280;57205;51.438;-2.006;2023-02-22T08:13:02;100420.63;;;7.09;100.00
66668;BME280;57205;51.438;-2.006;2023-02-22T08:15:29;100423.28;;;7.09;100.00
66668;BME280;57205;51.438;-2.006;2023-02-22T08:17:58;100427.63;;;7.15;100.00
66668;BME280;57205;51.438;-2.006;2023-02-22T08:20:25;100418.59;;;7.16;100.00
66668;BME280;57205;51.438;-2.006;2023-02-22T08:22:50;100424.97;;;7.15;100.00
66668;BME280;57205;51.438;-2.006;2023-02-22T08:25:16;100419.72;;;7.20;100.00
66668;BME280;57205;51.438;-2.006;2023-02-22T08:27:43;100420.00;;;7.23;100.00
66668;BME280;57205;51.438;-2.006;2023-02-22T08:30:11;100415.50;;;7.24;100.00
66668;BME280;57205;51.438;-2.006;2023-02-22T08:32:37;100417.44;;;7.28;100.00
66668;BME280;57205;51.438;-2.006;2023-02-22T08:35:03;100417.19;;;7.30;100.00
66668;BME280;57205;51.438;-2.006;2023-02-22T08:37:28;100415.13;;;7.37;100.00
66668;BME280;57205;51.438;-2.006;2023-02-22T08:39:53;100418.34;;;7.39;100.00
66668;BME280;57205;51.438;-2.006;2023-02-22T08:42:20;100417.38;;;7.45;100.00
66668;BME280;57205;51.438;-2.006;2023-02-22T08:44:45;100417.44;;;7.50;100.00
66668;BME280;57205;51.438;-2.006;2023-02-22T08:47:10;100423.06;;;7.53;100.00
66668;BME280;57205;51.438;-2.006;2023-02-22T08:49:36;100423.63;;;7.55;100.00
66668;BME280;57205;51.438;-2.006;2023-02-22T08:52:01;100430.31;;;7.58;100.00
66668;BME280;57205;51.438;-2.006;2023-02-22T08:54:26;100421.25;;;7.59;100.00
66668;BME280;57205;51.438;-2.006;2023-02-22T08:56:51;100431.72;;;7.65;100.00
66668;BME280;57205;51.438;-2.006;2023-02-22T08:59:17;100427.19;;;7.66;100.00
66668;BME280;57205;51.438;-2.006;2023-02-22T09:01:42;100436.28;;;7.70;100.00
66668;BME280;57205;51.438;-2.006;2023-02-22T09:04:07;100427.31;;;7.76;100.00
66668;BME280;57205;51.438;-2.006;2023-02-22T09:06:32;100431.66;;;7.82;100.00
66668;BME280;57205;51.438;-2.006;2023-02-22T09:08:58;100428.47;;;7.85;100.00
66668;BME280;57205;51.438;-2.006;2023-02-22T09:11:23;100426.38;;;7.87;100.00
66668;BME280;57205;51.438;-2.006;2023-02-22T09:13:48;100426.66;;;7.90;100.00
66668;BME280;57205;51.438;-2.006;2023-02-22T09:16:14;100427.00;;;7.99;100.00
66668;BME280;57205;51.438;-2.006;2023-02-22T09:18:39;100427.25;;;7.98;100.00
66668;BME280;57205;51.438;-2.006;2023-02-22T09:21:04;100431.63;;;8.09;100.00
66668;BME280;57205;51.438;-2.006;2023-02-22T09:23:30;100434.41;;;8.19;100.00
66668;BME280;57205;51.438;-2.006;2023-02-22T09:25:55;100430.19;;;8.23;100.00
66668;BME280;57205;51.438;-2.006;2023-02-22T09:28:21;100432.69;;;8.34;100.00
66668;BME280;57205;51.438;-2.006;2023-02-22T09:30:46;100432.78;;;8.44;100.00
66668;BME280;57205;51.438;-2.006;2023-02-22T09:33:15;100435.00;;;8.52;100.00
66668;BME280;57205;51.438;-2.006;2023-02-22T09:35:41;100437.47;;;8.64;100.00
66668;BME280;57205;51.438;-2.006;2023-02-22T09:38:10;100433.03;;;8.74;100.00
66668;BME280;57205;51.438;-2.006;2023-02-22T09:40:38;100441.88;;;8.85;100.00
66668;BME280;57205;51.438;-2.006;2023-02-22T09:48:18;100441.22;;;9.05;100.00
66668;BME280;57205;51.438;-2.006;2023-02-22T09:50:44;100434.81;;;9.06;100.00
66668;BME280;57205;51.438;-2.006;2023-02-22T09:53:25;100434.34;;;9.14;100.00
66668;BME280;57205;51.438;-2.006;2023-02-22T09:55:59;100445.00;;;9.14;100.00
66668;BME280;57205;51.438;-2.006;2023-02-22T09:58:27;100429.22;;;9.07;100.00
66668;BME280;57205;51.438;-2.006;2023-02-22T10:06:12;100450.53;;;8.97;100.00
66668;BME280;57205;51.438;-2.006;2023-02-22T10:08:39;100446.22;;;8.96;100.00
66668;BME280;57205;51.438;-2.006;2023-02-22T10:23:35;100452.50;;;8.75;100.00
66668;BME280;57205;51.438;-2.006;2023-02-22T10:26:19;100462.63;;;8.73;100.00
66668;BME280;57205;51.438;-2.006;2023-02-22T10:31:19;100463.78;;;8.87;100.00
66668;BME280;57205;51.438;-2.006;2023-02-22T10:33:46;100469.75;;;8.99;100.00
66668;BME280;57205;51.438;-2.006;2023-02-22T10:36:16;100466.63;;;9.12;100.00
66668;BME280;57205;51.438;-2.006;2023-02-22T10:38:44;100470.41;;;9.21;100.00
66668;BME280;57205;51.438;-2.006;2023-02-22T10:41:32;100474.97;;;9.26;100.00
66668;BME280;57205;51.438;-2.006;2023-02-22T10:43:58;100479.25;;;9.27;100.00
66668;BME280;57205;51.438;-2.006;2023-02-22T10:46:24;100482.50;;;9.39;100.00
66668;BME280;57205;51.438;-2.006;2023-02-22T10:48:53;100487.16;;;9.58;100.00
66668;BME280;57205;51.438;-2.006;2023-02-22T10:51:20;100486.97;;;9.75;100.00
66668;BME280;57205;51.438;-2.006;2023-02-22T10:53:47;100481.63;;;9.85;100.00
66668;BME280;57205;51.438;-2.006;2023-02-22T10:56:21;100479.56;;;9.97;100.00
66668;BME280;57205;51.438;-2.006;2023-02-22T11:03:55;100481.53;;;10.52;100.00
66668;BME280;57205;51.438;-2.006;2023-02-22T11:06:21;100477.81;;;10.68;100.00
66668;BME280;57205;51.438;-2.006;2023-02-22T11:08:46;100477.81;;;10.73;100.00
66668;BME280;57205;51.438;-2.006;2023-02-22T11:11:22;100475.66;;;10.65;100.00
66668;BME280;57205;51.438;-2.006;2023-02-22T11:13:55;100483.44;;;10.71;100.00
66668;BME280;57205;51.438;-2.006;2023-02-22T11:19:18;100477.00;;;10.62;100.00
66668;BME280;57205;51.438;-2.006;2023-02-22T11:21:45;100482.59;;;10.41;100.00
66668;BME280;57205;51.438;-2.006;2023-02-22T11:24:11;100481.53;;;10.22;100.00
66668;BME280;57205;51.438;-2.006;2023-02-22T11:26:44;100486.06;;;10.31;100.00
66668;BME280;57205;51.438;-2.006;2023-02-22T11:29:21;100480.19;;;10.34;100.00
66668;BME280;57205;51.438;-2.006;2023-02-22T11:31:49;100486.06;;;10.31;100.00
66668;BME280;57205;51.438;-2.006;2023-02-22T11:34:37;100486.31;;;10.25;100.00
66668;BME280;57205;51.438;-2.006;2023-02-22T11:37:16;100493.53;;;10.14;100.00
66668;BME280;57205;51.438;-2.006;2023-02-22T11:39:42;100500.13;;;9.92;99.71
66668;BME280;57205;51.438;-2.006;2023-02-22T11:42:25;100496.63;;;9.96;100.00
66668;BME280;57205;51.438;-2.006;2023-02-22T11:45:07;100494.00;;;10.06;100.00
66668;BME280;57205;51.438;-2.006;2023-02-22T11:47:34;100488.19;;;10.24;100.00
66668;BME280;57205;51.438;-2.006;2023-02-22T11:49:59;100488.25;;;10.49;100.00
66668;BME280;57205;51.438;-2.006;2023-02-22T12:00:18;100491.44;;;10.41;98.80
66668;BME280;57205;51.438;-2.006;2023-02-22T12:05:22;100485.84;;;10.53;99.93
66668;BME280;57205;51.438;-2.006;2023-02-22T12:10:39;100484.75;;;10.74;100.00
66668;BME280;57205;51.438;-2.006;2023-02-22T12:14:11;100484.50;;;10.75;97.44
66668;BME280;57205;51.438;-2.006;2023-02-22T12:21:15;100484.50;;;10.65;96.44
66668;BME280;57205;51.438;-2.006;2023-02-22T12:24:01;100483.41;;;10.81;95.71
66668;BME280;57205;51.438;-2.006;2023-02-22T12:26:38;100479.13;;;11.01;95.98
66668;BME280;57205;51.438;-2.006;2023-02-22T12:34:14;100475.78;;;11.49;88.70
66668;BME280;57205;51.438;-2.006;2023-02-22T12:36:54;100481.91;;;11.59;89.47
66668;BME280;57205;51.438;-2.006;2023-02-22T12:39:38;100478.41;;;11.64;88.78
66668;BME280;57205;51.438;-2.006;2023-02-22T12:45:07;100477.97;;;11.42;87.15
66668;BME280;57205;51.438;-2.006;2023-02-22T12:47:37;100480.66;;;11.32;88.13
66668;BME280;57205;51.438;-2.006;2023-02-22T12:50:14;100471.56;;;11.28;87.39
66668;BME280;57205;51.438;-2.006;2023-02-22T12:52:56;100480.19;;;11.05;89.26
66668;BME280;57205;51.438;-2.006;2023-02-22T12:55:25;100485.53;;;11.05;92.19
66668;BME280;57205;51.438;-2.006;2023-02-22T12:57:58;100482.59;;;11.01;90.93
66668;BME280;57205;51.438;-2.006;2023-02-22T13:00:43;100485.56;;;11.00;90.37
66668;BME280;57205;51.438;-2.006;2023-02-22T13:05:38;100480.19;;;11.00;87.63
66668;BME280;57205;51.438;-2.006;2023-02-22T13:08:08;100488.47;;;11.08;88.76
66668;BME280;57205;51.438;-2.006;2023-02-22T13:15:52;100482.91;;;10.64;88.34
66668;BME280;57205;51.438;-2.006;2023-02-22T13:18:24;100489.31;;;10.58;86.92
66668;BME280;57205;51.438;-2.006;2023-02-22T13:23:40;100476.47;;;10.75;89.63
66668;BME280;57205;51.438;-2.006;2023-02-22T13:26:13;100484.22;;;10.77;88.78
66668;BME280;57205;51.438;-2.006;2023-02-22T13:29:05;100486.63;;;10.78;85.95
66668;BME280;57205;51.438;-2.006;2023-02-22T13:34:00;100485.03;;;10.98;86.14
66668;BME280;57205;51.438;-2.006;2023-02-22T13:36:47;100485.03;;;10.98;85.27
66668;BME280;57205;51.438;-2.006;2023-02-22T13:44:41;100501.09;;;10.67;87.66
66668;BME280;57205;51.438;-2.006;2023-02-22T13:52:24;100516.31;;;9.70;100.00
66668;BME280;57205;51.438;-2.006;2023-02-22T13:54:58;100515.72;;;9.53;100.00
66668;BME280;57205;51.438;-2.006;2023-02-22T13:57:27;100510.03;;;9.44;100.00
66668;BME280;57205;51.438;-2.006;2023-02-22T14:10:56;100492.66;;;9.99;99.66
66668;BME280;57205;51.438;-2.006;2023-02-22T14:14:07;100505.56;;;10.17;100.00
66668;BME280;57205;51.438;-2.006;2023-02-22T14:31:15;100527.06;;;9.28;100.00
66668;BME280;57205;51.438;-2.006;2023-02-22T14:36:22;100523.84;;;8.90;100.00
66668;BME280;57205;51.438;-2.006;2023-02-22T14:38:49;100519.22;;;8.80;100.00
66668;BME280;57205;51.438;-2.006;2023-02-22T14:41:18;100526.81;;;8.93;100.00
66668;BME280;57205;51.438;-2.006;2023-02-22T14:43:45;100519.69;;;9.09;100.00
66668;BME280;57205;51.438;-2.006;2023-02-22T14:46:13;100520.41;;;9.31;100.00
66668;BME280;57205;51.438;-2.006;2023-02-22T14:48:42;100518.09;;;9.49;100.00
66668;BME280;57205;51.438;-2.006;2023-02-22T14:51:22;100512.53;;;9.61;100.00
66668;BME280;57205;51.438;-2.006;2023-02-22T14:53:49;100517.13;;;9.70;100.00
66668;BME280;57205;51.438;-2.006;2023-02-22T14:56:20;100512.31;;;9.72;100.00
66668;BME280;57205;51.438;-2.006;2023-02-22T15:01:19;100520.34;;;9.77;100.00
66668;BME280;57205;51.438;-2.006;2023-02-22T15:03:46;100519.56;;;9.77;100.00
66668;BME280;57205;51.438;-2.006;2023-02-22T15:08:40;100530.75;;;9.22;97.66
66668;BME280;57205;51.438;-2.006;2023-02-22T15:11:10;100543.22;;;9.12;100.00
66668;BME280;57205;51.438;-2.006;2023-02-22T15:13:48;100542.00;;;8.93;100.00